sensor_id;sensor_type;location;lat;lon;timestamp;pressure;altitude;pressure_sealevel;temperature;humidity
56241;BME280;42155;53.096;23.226;2022-12-18T00:00:53;101153.34;;;-9.96;79.59
56241;BME280;42155;53.096;23.226;2022-12-18T00:02:53;101123.78;;;-10.17;80.01
56241;BME280;42155;53.096;23.226;2022-12-18T00:04:55;101151.16;;;-10.17;80.01
56241;BME280;42155;53.096;23.226;2022-12-18T00:06:55;101127.78;;;-10.31;79.94
56241;BME280;42155;53.096;23.226;2022-12-18T00:08:57;101168.53;;;-10.07;80.42
56241;BME280;42155;53.096;23.226;2022-12-18T00:11:04;101170.50;;;-9.94;80.36
56241;BME280;42155;53.096;23.226;2022-12-18T00:13:05;101176.00;;;-9.79;80.17
56241;BME280;42155;53.096;23.226;2022-12-18T00:15:05;101178.03;;;-9.64;80.12
56241;BME280;42155;53.096;23.226;2022-12-18T00:17:06;101184.22;;;-9.53;79.84
56241;BME280;42155;53.096;23.226;2022-12-18T00:19:06;101183.34;;;-9.56;79.20
56241;BME280;42155;53.096;23.226;2022-12-18T00:21:10;101189.34;;;-9.54;79.62
56241;BME280;42155;53.096;23.226;2022-12-18T00:23:10;101167.91;;;-9.56;79.38
56241;BME280;42155;53.096;23.226;2022-12-18T00:25:11;101159.66;;;-9.40;79.29
56241;BME280;42155;53.096;23.226;2022-12-18T00:27:11;101187.41;;;-9.24;78.68
56241;BME280;42155;53.096;23.226;2022-12-18T00:29:13;101166.41;;;-9.45;78.53
56241;BME280;42155;53.096;23.226;2022-12-18T00:31:16;101189.53;;;-9.45;78.34
56241;BME280;42155;53.096;23.226;2022-12-18T00:33:17;101190.31;;;-9.49;79.00
56241;BME280;42155;53.096;23.226;2022-12-18T00:35:18;101188.69;;;-9.45;78.97
56241;BME280;42155;53.096;23.226;2022-12-18T00:37:18;101194.09;;;-9.32;78.95
56241;BME280;42155;53.096;23.226;2022-12-18T00:39:18;101194.34;;;-9.19;78.75
56241;BME280;42155;53.096;23.226;2022-12-18T00:41:19;101200.22;;;-9.25;78.26
56241;BME280;42155;53.096;23.226;2022-12-18T00:43:19;101201.72;;;-9.36;77.78
56241;BME280;42155;53.096;23.226;2022-12-18T00:45:19;101214.41;;;-9.44;78.32
56241;BME280;42155;53.096;23.226;2022-12-18T00:47:20;101127.59;;;-10.00;78.31
56241;BME280;42155;53.096;23.226;2022-12-18T00:49:20;101232.16;;;-9.55;78.22
56241;BME280;42155;53.096;23.226;2022-12-18T00:51:21;101222.44;;;-9.69;78.21
56241;BME280;42155;53.096;23.226;2022-12-18T00:53:21;101225.75;;;-9.73;78.83
56241;BME280;42155;53.096;23.226;2022-12-18T00:55:22;101236.81;;;-9.76;78.82
56241;BME280;42155;53.096;23.226;2022-12-18T00:57:22;101245.56;;;-9.68;79.22
56241;BME280;42155;53.096;23.226;2022-12-18T00:59:22;101249.94;;;-9.65;79.14
56241;BME280;42155;53.096;23.226;2022-12-18T01:01:22;101260.03;;;-9.71;78.40
56241;BME280;42155;53.096;23.226;2022-12-18T01:03:23;101256.47;;;-9.80;78.87
56241;BME280;42155;53.096;23.226;2022-12-18T01:05:23;101257.44;;;-9.73;79.11
56241;BME280;42155;53.096;23.226;2022-12-18T01:07:23;101243.19;;;-9.60;79.38
56241;BME280;42155;53.096;23.226;2022-12-18T01:09:24;101235.31;;;-9.66;78.57
56241;BME280;42155;53.096;23.226;2022-12-18T01:11:24;101247.34;;;-9.65;78.48
56241;BME280;42155;53.096;23.226;2022-12-18T01:13:25;101256.72;;;-9.67;79.06
56241;BME280;42155;53.096;23.226;2022-12-18T01:15:25;101239.44;;;-9.75;79.14
56241;BME280;42155;53.096;23.226;2022-12-18T01:17:26;101247.47;;;-9.59;78.62
56241;BME280;42155;53.096;23.226;2022-12-18T01:19:26;101262.28;;;-9.48;78.67
56241;BME280;42155;53.096;23.226;2022-12-18T01:21:26;101255.47;;;-9.47;78.00
56241;BME280;42155;53.096;23.226;2022-12-18T01:23:27;101267.72;;;-9.34;78.53
56241;BME280;42155;53.096;23.226;2022-12-18T01:25:27;101266.16;;;-9.27;78.19
56241;BME280;42155;53.096;23.226;2022-12-18T01:27:27;101247.22;;;-9.31;77.69
56241;BME280;42155;53.096;23.226;2022-12-18T01:29:28;101262.78;;;-9.25;77.61
56241;BME280;42155;53.096;23.226;2022-12-18T01:31:30;101272.38;;;-9.17;77.63
56241;BME280;42155;53.096;23.226;2022-12-18T01:33:30;101241.06;;;-9.39;77.83
56241;BME280;42155;53.096;23.226;2022-12-18T01:35:31;101275.88;;;-9.12;76.94
56241;BME280;42155;53.096;23.226;2022-12-18T01:37:31;101290.25;;;-9.24;77.40
56241;BME280;42155;53.096;23.226;2022-12-18T01:39:32;101290.72;;;-9.40;77.43
56241;BME280;42155;53.096;23.226;2022-12-18T01:41:34;101296.22;;;-9.62;77.65
56241;BME280;42155;53.096;23.226;2022-12-18T01:43:57;101300.13;;;-9.80;77.54
56241;BME280;42155;53.096;23.226;2022-12-18T01:45:59;101313.59;;;-9.88;77.68
56241;BME280;42155;53.096;23.226;2022-12-18T01:48:04;101296.09;;;-10.03;78.52
56241;BME280;42155;53.096;23.226;2022-12-18T01:50:15;101321.03;;;-9.99;78.38
56241;BME280;42155;53.096;23.226;2022-12-18T01:52:17;101296.69;;;-10.15;78.59
56241;BME280;42155;53.096;23.226;2022-12-18T01:54:17;101318.13;;;-10.13;78.67
56241;BME280;42155;53.096;23.226;2022-12-18T01:56:20;101331.00;;;-10.11;78.78
56241;BME280;42155;53.096;23.226;2022-12-18T01:58:47;101337.13;;;-10.06;78.76
56241;BME280;42155;53.096;23.226;2022-12-18T02:00:45;101317.59;;;-10.00;78.91
56241;BME280;42155;53.096;23.226;2022-12-18T02:02:46;101332.69;;;-9.79;78.64
56241;BME280;42155;53.096;23.226;2022-12-18T02:04:46;101341.88;;;-9.87;77.95
56241;BME280;42155;53.096;23.226;2022-12-18T02:06:55;101340.78;;;-9.96;78.62
56241;BME280;42155;53.096;23.226;2022-12-18T02:09:13;101357.72;;;-10.03;78.39
56241;BME280;42155;53.096;23.226;2022-12-18T02:13:43;101360.63;;;-9.91;78.73
56241;BME280;42155;53.096;23.226;2022-12-18T02:18:19;101334.81;;;-9.95;78.32
56241;BME280;42155;53.096;23.226;2022-12-18T02:20:35;101366.84;;;-9.81;78.14
56241;BME280;42155;53.096;23.226;2022-12-18T02:27:10;101369.13;;;-9.93;78.29
56241;BME280;42155;53.096;23.226;2022-12-18T02:29:21;101360.34;;;-10.02;77.94
56241;BME280;42155;53.096;23.226;2022-12-18T02:31:30;101360.28;;;-10.03;78.46
56241;BME280;42155;53.096;23.226;2022-12-18T02:33:33;101343.47;;;-10.27;78.56
56241;BME280;42155;53.096;23.226;2022-12-18T02:35:36;101350.91;;;-10.36;78.73
56241;BME280;42155;53.096;23.226;2022-12-18T02:37:39;101376.06;;;-10.22;78.49
56241;BME280;42155;53.096;23.226;2022-12-18T02:39:43;101366.53;;;-10.28;79.05
56241;BME280;42155;53.096;23.226;2022-12-18T02:41:44;101366.63;;;-10.23;78.98
56241;BME280;42155;53.096;23.226;2022-12-18T02:43:49;101369.09;;;-10.28;78.74
56241;BME280;42155;53.096;23.226;2022-12-18T02:45:58;101379.66;;;-10.16;78.94
56241;BME280;42155;53.096;23.226;2022-12-18T02:47:59;101371.69;;;-10.27;78.71
56241;BME280;42155;53.096;23.226;2022-12-18T02:50:31;101386.31;;;-10.24;78.72
56241;BME280;42155;53.096;23.226;2022-12-18T02:55:13;101379.69;;;-10.14;78.90
56241;BME280;42155;53.096;23.226;2022-12-18T02:57:34;101349.41;;;-10.29;78.80
56241;BME280;42155;53.096;23.226;2022-12-18T02:59:43;101382.22;;;-10.16;78.63
56241;BME280;42155;53.096;23.226;2022-12-18T03:02:01;101373.56;;;-10.19;78.55
56241;BME280;42155;53.096;23.226;2022-12-18T03:04:20;101385.09;;;-10.04;78.68
56241;BME280;42155;53.096;23.226;2022-12-18T03:06:25;101385.53;;;-9.87;78.32
56241;BME280;42155;53.096;23.226;2022-12-18T03:08:35;101402.03;;;-9.79;77.34
56241;BME280;42155;53.096;23.226;2022-12-18T03:10:42;101398.38;;;-9.87;77.68
56241;BME280;42155;53.096;23.226;2022-12-18T03:12:54;101401.69;;;-9.91;77.90
56241;BME280;42155;53.096;23.226;2022-12-18T03:14:58;101406.00;;;-9.90;78.11
56241;BME280;42155;53.096;23.226;2022-12-18T03:17:02;101398.34;;;-9.88;77.88
56241;BME280;42155;53.096;23.226;2022-12-18T03:19:11;101399.88;;;-9.95;77.42
56241;BME280;42155;53.096;23.226;2022-12-18T03:21:14;101406.69;;;-9.97;78.24
56241;BME280;42155;53.096;23.226;2022-12-18T03:23:20;101390.25;;;-10.04;78.25
56241;BME280;42155;53.096;23.226;2022-12-18T03:25:22;101406.81;;;-9.92;77.99
56241;BME280;42155;53.096;23.226;2022-12-18T03:27:25;101409.75;;;-9.77;78.15
56241;BME280;42155;53.096;23.226;2022-12-18T03:29:37;101416.13;;;-9.61;78.07
56241;BME280;42155;53.096;23.226;2022-12-18T03:31:41;101418.69;;;-9.63;77.58
56241;BME280;42155;53.096;23.226;2022-12-18T03:33:51;101418.44;;;-9.72;77.94
56241;BME280;42155;53.096;23.226;2022-12-18T03:35:51;101411.25;;;-9.85;77.50
56241;BME280;42155;53.096;23.226;2022-12-18T03:37:51;101425.19;;;-9.76;77.88
56241;BME280;42155;53.096;23.226;2022-12-18T03:39:52;101416.28;;;-9.90;77.78
56241;BME280;42155;53.096;23.226;2022-12-18T03:42:03;101424.84;;;-9.89;77.42
56241;BME280;42155;53.096;23.226;2022-12-18T03:44:12;101419.34;;;-10.03;77.95
56241;BME280;42155;53.096;23.226;2022-12-18T03:46:47;101441.22;;;-9.86;78.09
56241;BME280;42155;53.096;23.226;2022-12-18T03:49:19;101456.13;;;-9.71;77.89
56241;BME280;42155;53.096;23.226;2022-12-18T03:55:47;101476.78;;;-9.68;77.43
56241;BME280;42155;53.096;23.226;2022-12-18T03:57:49;101465.66;;;-9.67;77.64
56241;BME280;42155;53.096;23.226;2022-12-18T03:59:56;101429.06;;;-9.93;77.98
56241;BME280;42155;53.096;23.226;2022-12-18T04:01:58;101474.19;;;-9.69;78.03
56241;BME280;42155;53.096;23.226;2022-12-18T04:04:01;101481.06;;;-9.68;77.75
56241;BME280;42155;53.096;23.226;2022-12-18T04:06:02;101483.75;;;-9.64;77.81
56241;BME280;42155;53.096;23.226;2022-12-18T04:08:04;101482.25;;;-9.56;78.10
56241;BME280;42155;53.096;23.226;2022-12-18T04:10:07;101466.38;;;-9.72;77.79
56241;BME280;42155;53.096;23.226;2022-12-18T04:12:08;101487.22;;;-9.62;77.93
56241;BME280;42155;53.096;23.226;2022-12-18T04:14:09;101489.09;;;-9.56;77.84
56241;BME280;42155;53.096;23.226;2022-12-18T04:16:10;101469.03;;;-9.69;78.36
56241;BME280;42155;53.096;23.226;2022-12-18T04:18:10;101491.09;;;-9.44;78.34
56241;BME280;42155;53.096;23.226;2022-12-18T04:20:10;101505.00;;;-9.36;77.82
56241;BME280;42155;53.096;23.226;2022-12-18T04:22:11;101510.28;;;-9.30;77.47
56241;BME280;42155;53.096;23.226;2022-12-18T04:24:11;101512.00;;;-9.31;77.21
56241;BME280;42155;53.096;23.226;2022-12-18T04:26:12;101505.78;;;-9.39;77.44
56241;BME280;42155;53.096;23.226;2022-12-18T04:28:12;101518.50;;;-9.45;77.62
56241;BME280;42155;53.096;23.226;2022-12-18T04:30:12;101512.28;;;-9.53;77.86
56241;BME280;42155;53.096;23.226;2022-12-18T04:32:13;101504.28;;;-9.65;77.78
56241;BME280;42155;53.096;23.226;2022-12-18T04:34:13;101524.38;;;-9.49;78.30
56241;BME280;42155;53.096;23.226;2022-12-18T04:36:13;101501.94;;;-9.56;78.10
56241;BME280;42155;53.096;23.226;2022-12-18T04:38:14;101529.84;;;-9.37;78.00
56241;BME280;42155;53.096;23.226;2022-12-18T04:40:14;101519.31;;;-9.46;77.77
56241;BME280;42155;53.096;23.226;2022-12-18T04:42:15;101529.66;;;-9.43;78.12
56241;BME280;42155;53.096;23.226;2022-12-18T04:44:15;101538.41;;;-9.38;78.20
56241;BME280;42155;53.096;23.226;2022-12-18T04:46:15;101531.44;;;-9.42;77.82
56241;BME280;42155;53.096;23.226;2022-12-18T04:48:15;101544.94;;;-9.49;77.96
56241;BME280;42155;53.096;23.226;2022-12-18T04:50:16;101549.91;;;-9.55;78.31
56241;BME280;42155;53.096;23.226;2022-12-18T04:52:16;101542.16;;;-9.57;78.24
56241;BME280;42155;53.096;23.226;2022-12-18T04:54:19;101548.59;;;-9.41;78.38
56241;BME280;42155;53.096;23.226;2022-12-18T04:56:20;101530.56;;;-9.42;78.44
56241;BME280;42155;53.096;23.226;2022-12-18T04:58:21;101555.28;;;-9.13;77.48
56241;BME280;42155;53.096;23.226;2022-12-18T05:00:21;101539.63;;;-9.24;77.61
56241;BME280;42155;53.096;23.226;2022-12-18T05:02:21;101562.06;;;-9.16;77.73
56241;BME280;42155;53.096;23.226;2022-12-18T05:04:22;101568.78;;;-9.21;77.13
56241;BME280;42155;53.096;23.226;2022-12-18T05:06:22;101542.34;;;-9.51;77.70
56241;BME280;42155;53.096;23.226;2022-12-18T05:08:22;101570.16;;;-9.34;77.69
56241;BME280;42155;53.096;23.226;2022-12-18T05:10:23;101570.91;;;-9.38;77.66
56241;BME280;42155;53.096;23.226;2022-12-18T05:12:23;101576.22;;;-9.32;78.59
56241;BME280;42155;53.096;23.226;2022-12-18T05:14:24;101573.72;;;-9.29;78.00
56241;BME280;42155;53.096;23.226;2022-12-18T05:16:24;101572.84;;;-9.30;78.15
56241;BME280;42155;53.096;23.226;2022-12-18T05:18:25;101571.03;;;-9.34;78.01
56241;BME280;42155;53.096;23.226;2022-12-18T05:20:26;101570.78;;;-9.43;77.97
56241;BME280;42155;53.096;23.226;2022-12-18T05:22:27;101577.06;;;-9.33;78.25
56241;BME280;42155;53.096;23.226;2022-12-18T05:24:27;101543.06;;;-9.56;77.88
56241;BME280;42155;53.096;23.226;2022-12-18T05:26:27;101574.19;;;-9.44;78.22
56241;BME280;42155;53.096;23.226;2022-12-18T05:28:29;101596.59;;;-9.40;78.19
56241;BME280;42155;53.096;23.226;2022-12-18T05:30:30;101605.16;;;-9.39;78.26
56241;BME280;42155;53.096;23.226;2022-12-18T05:32:30;101584.41;;;-9.47;78.30
56241;BME280;42155;53.096;23.226;2022-12-18T05:34:30;101609.44;;;-9.40;78.53
56241;BME280;42155;53.096;23.226;2022-12-18T05:36:31;101604.16;;;-9.44;78.58
56241;BME280;42155;53.096;23.226;2022-12-18T05:38:33;101608.59;;;-9.39;78.51
56241;BME280;42155;53.096;23.226;2022-12-18T05:40:33;101611.41;;;-9.30;78.67
56241;BME280;42155;53.096;23.226;2022-12-18T05:42:34;101608.03;;;-9.29;78.48
56241;BME280;42155;53.096;23.226;2022-12-18T05:44:34;101606.09;;;-9.37;78.05
56241;BME280;42155;53.096;23.226;2022-12-18T05:46:34;101601.31;;;-9.55;78.29
56241;BME280;42155;53.096;23.226;2022-12-18T05:48:35;101610.72;;;-9.56;78.73
56241;BME280;42155;53.096;23.226;2022-12-18T05:50:37;101595.19;;;-9.60;78.69
56241;BME280;42155;53.096;23.226;2022-12-18T05:52:38;101613.41;;;-9.51;78.97
56241;BME280;42155;53.096;23.226;2022-12-18T05:54:38;101619.59;;;-9.44;78.89
56241;BME280;42155;53.096;23.226;2022-12-18T05:56:38;101624.59;;;-9.49;78.48
56241;BME280;42155;53.096;23.226;2022-12-18T05:58:39;101594.97;;;-9.68;79.08
56241;BME280;42155;53.096;23.226;2022-12-18T06:00:40;101633.88;;;-9.54;78.92
56241;BME280;42155;53.096;23.226;2022-12-18T06:02:41;101634.75;;;-9.54;79.10
56241;BME280;42155;53.096;23.226;2022-12-18T06:04:41;101609.50;;;-9.68;79.22
56241;BME280;42155;53.096;23.226;2022-12-18T06:06:41;101633.16;;;-9.50;78.56
56241;BME280;42155;53.096;23.226;2022-12-18T06:08:42;101641.09;;;-9.41;79.03
56241;BME280;42155;53.096;23.226;2022-12-18T06:10:49;101634.50;;;-9.33;78.67
56241;BME280;42155;53.096;23.226;2022-12-18T06:12:50;101616.44;;;-9.34;78.33
56241;BME280;42155;53.096;23.226;2022-12-18T06:14:51;101633.53;;;-9.03;78.27
56241;BME280;42155;53.096;23.226;2022-12-18T06:16:51;101609.50;;;-9.05;77.90
56241;BME280;42155;53.096;23.226;2022-12-18T06:18:51;101628.78;;;-8.88;77.95
56241;BME280;42155;53.096;23.226;2022-12-18T06:20:58;101649.84;;;-8.69;77.83
56241;BME280;42155;53.096;23.226;2022-12-18T06:22:59;101653.34;;;-8.67;77.31
56241;BME280;42155;53.096;23.226;2022-12-18T06:25:00;101650.81;;;-8.64;77.65
56241;BME280;42155;53.096;23.226;2022-12-18T06:27:00;101653.47;;;-8.61;77.30
56241;BME280;42155;53.096;23.226;2022-12-18T06:29:00;101613.44;;;-8.85;77.32
56241;BME280;42155;53.096;23.226;2022-12-18T06:31:03;101668.47;;;-8.45;77.29
56241;BME280;42155;53.096;23.226;2022-12-18T06:33:03;101672.06;;;-8.37;77.29
56241;BME280;42155;53.096;23.226;2022-12-18T06:35:04;101651.31;;;-8.44;77.23
56241;BME280;42155;53.096;23.226;2022-12-18T06:37:04;101680.00;;;-8.28;77.02
56241;BME280;42155;53.096;23.226;2022-12-18T06:39:05;101646.19;;;-8.43;77.10
56241;BME280;42155;53.096;23.226;2022-12-18T06:41:12;101686.22;;;-8.18;76.72
56241;BME280;42155;53.096;23.226;2022-12-18T06:43:13;101631.47;;;-8.50;76.61
56241;BME280;42155;53.096;23.226;2022-12-18T06:45:13;101697.69;;;-8.05;76.96
56241;BME280;42155;53.096;23.226;2022-12-18T06:47:13;101670.72;;;-8.21;76.39
56241;BME280;42155;53.096;23.226;2022-12-18T06:49:14;101685.53;;;-8.12;76.78
56241;BME280;42155;53.096;23.226;2022-12-18T06:51:21;101715.88;;;-7.99;76.86
56241;BME280;42155;53.096;23.226;2022-12-18T06:53:22;101673.44;;;-8.15;76.77
56241;BME280;42155;53.096;23.226;2022-12-18T06:55:23;101687.38;;;-8.05;76.73
56241;BME280;42155;53.096;23.226;2022-12-18T06:57:23;101673.44;;;-8.15;76.86
56241;BME280;42155;53.096;23.226;2022-12-18T06:59:24;101720.50;;;-7.84;76.47
56241;BME280;42155;53.096;23.226;2022-12-18T07:01:24;101692.66;;;-8.01;76.60
56241;BME280;42155;53.096;23.226;2022-12-18T07:03:24;101701.31;;;-7.97;76.81
56241;BME280;42155;53.096;23.226;2022-12-18T07:05:25;101697.84;;;-7.99;77.03
56241;BME280;42155;53.096;23.226;2022-12-18T07:07:25;101715.50;;;-7.77;76.46
56241;BME280;42155;53.096;23.226;2022-12-18T07:09:25;101722.44;;;-7.76;76.33
56241;BME280;42155;53.096;23.226;2022-12-18T07:11:26;101727.44;;;-7.82;76.70
56241;BME280;42155;53.096;23.226;2022-12-18T07:13:27;101717.19;;;-7.79;76.51
56241;BME280;42155;53.096;23.226;2022-12-18T07:15:27;101690.22;;;-7.95;76.73
56241;BME280;42155;53.096;23.226;2022-12-18T07:17:28;101731.13;;;-7.71;76.69
56241;BME280;42155;53.096;23.226;2022-12-18T07:19:29;101744.13;;;-7.66;76.39
56241;BME280;42155;53.096;23.226;2022-12-18T07:21:29;101702.94;;;-8.02;76.54
56241;BME280;42155;53.096;23.226;2022-12-18T07:23:30;101741.34;;;-7.75;76.76
56241;BME280;42155;53.096;23.226;2022-12-18T07:25:35;101738.91;;;-7.68;76.98
56241;BME280;42155;53.096;23.226;2022-12-18T07:27:35;101701.66;;;-7.82;77.21
56241;BME280;42155;53.096;23.226;2022-12-18T07:29:35;101746.03;;;-7.57;76.57
56241;BME280;42155;53.096;23.226;2022-12-18T07:31:36;101741.69;;;-7.58;76.60
56241;BME280;42155;53.096;23.226;2022-12-18T07:33:36;101759.13;;;-7.48;76.94
56241;BME280;42155;53.096;23.226;2022-12-18T07:35:37;101747.25;;;-7.40;76.39
56241;BME280;42155;53.096;23.226;2022-12-18T07:37:37;101731.66;;;-7.46;76.59
56241;BME280;42155;53.096;23.226;2022-12-18T07:39:37;101760.34;;;-7.31;76.08
56241;BME280;42155;53.096;23.226;2022-12-18T07:41:38;101755.97;;;-7.35;76.10
56241;BME280;42155;53.096;23.226;2022-12-18T07:43:39;101751.81;;;-7.28;76.09
56241;BME280;42155;53.096;23.226;2022-12-18T07:45:40;101746.56;;;-7.33;75.72
56241;BME280;42155;53.096;23.226;2022-12-18T07:47:40;101727.63;;;-7.33;76.15
56241;BME280;42155;53.096;23.226;2022-12-18T07:49:41;101758.22;;;-7.09;76.50
56241;BME280;42155;53.096;23.226;2022-12-18T07:51:41;101751.34;;;-7.10;75.84
56241;BME280;42155;53.096;23.226;2022-12-18T07:53:41;101717.47;;;-7.26;75.53
56241;BME280;42155;53.096;23.226;2022-12-18T07:55:42;101749.59;;;-7.11;76.04
56241;BME280;42155;53.096;23.226;2022-12-18T07:57:42;101740.81;;;-7.20;76.00
56241;BME280;42155;53.096;23.226;2022-12-18T07:59:43;101760.63;;;-7.19;75.86
56241;BME280;42155;53.096;23.226;2022-12-18T08:01:44;101755.72;;;-7.06;76.31
56241;BME280;42155;53.096;23.226;2022-12-18T08:03:44;101763.69;;;-6.94;75.97
56241;BME280;42155;53.096;23.226;2022-12-18T08:05:45;101739.41;;;-7.04;75.63
56241;BME280;42155;53.096;23.226;2022-12-18T08:07:45;101730.88;;;-7.01;75.27
56241;BME280;42155;53.096;23.226;2022-12-18T08:09:45;101744.16;;;-6.81;75.47
56241;BME280;42155;53.096;23.226;2022-12-18T08:11:46;101762.59;;;-6.61;75.61
56241;BME280;42155;53.096;23.226;2022-12-18T08:13:46;101753.94;;;-6.65;75.62
56241;BME280;42155;53.096;23.226;2022-12-18T08:15:48;101767.88;;;-6.55;74.85
56241;BME280;42155;53.096;23.226;2022-12-18T08:17:57;101772.97;;;-6.58;74.84
56241;BME280;42155;53.096;23.226;2022-12-18T08:19:58;101775.72;;;-6.51;75.41
56241;BME280;42155;53.096;23.226;2022-12-18T08:21:58;101774.94;;;-6.45;74.92
56241;BME280;42155;53.096;23.226;2022-12-18T08:24:00;101736.81;;;-6.60;74.66
56241;BME280;42155;53.096;23.226;2022-12-18T08:26:00;101784.63;;;-6.33;74.52
56241;BME280;42155;53.096;23.226;2022-12-18T08:28:01;101788.81;;;-6.40;74.67
56241;BME280;42155;53.096;23.226;2022-12-18T08:30:02;101791.38;;;-6.42;74.98
56241;BME280;42155;53.096;23.226;2022-12-18T08:32:02;101777.53;;;-6.47;74.87
56241;BME280;42155;53.096;23.226;2022-12-18T08:34:02;101768.78;;;-6.52;74.94
56241;BME280;42155;53.096;23.226;2022-12-18T08:36:04;101786.41;;;-6.31;74.85
56241;BME280;42155;53.096;23.226;2022-12-18T08:38:05;101783.03;;;-6.25;74.79
56241;BME280;42155;53.096;23.226;2022-12-18T08:40:05;101815.91;;;-6.18;74.74
56241;BME280;42155;53.096;23.226;2022-12-18T08:42:06;101789.09;;;-6.25;74.03
56241;BME280;42155;53.096;23.226;2022-12-18T08:44:09;101805.69;;;-6.10;74.52
56241;BME280;42155;53.096;23.226;2022-12-18T08:46:10;101812.00;;;-5.95;74.41
56241;BME280;42155;53.096;23.226;2022-12-18T08:48:10;101741.53;;;-6.37;73.97
56241;BME280;42155;53.096;23.226;2022-12-18T08:50:11;101819.81;;;-5.90;74.26
56241;BME280;42155;53.096;23.226;2022-12-18T08:52:11;101810.31;;;-5.93;74.15
56241;BME280;42155;53.096;23.226;2022-12-18T08:54:12;101810.41;;;-5.85;73.64
56241;BME280;42155;53.096;23.226;2022-12-18T08:56:13;101823.63;;;-5.68;73.58
56241;BME280;42155;53.096;23.226;2022-12-18T08:58:13;101828.03;;;-5.59;73.60
56241;BME280;42155;53.096;23.226;2022-12-18T09:00:14;101814.22;;;-5.61;73.24
56241;BME280;42155;53.096;23.226;2022-12-18T09:02:14;101824.69;;;-5.54;72.85
56241;BME280;42155;53.096;23.226;2022-12-18T09:04:15;101788.22;;;-5.71;72.99
56241;BME280;42155;53.096;23.226;2022-12-18T09:06:17;101803.75;;;-5.71;73.40
56241;BME280;42155;53.096;23.226;2022-12-18T09:08:18;101824.56;;;-5.61;73.15
56241;BME280;42155;53.096;23.226;2022-12-18T09:10:18;101823.50;;;-5.74;73.56
56241;BME280;42155;53.096;23.226;2022-12-18T09:12:18;101824.44;;;-5.71;73.52
56241;BME280;42155;53.096;23.226;2022-12-18T09:14:19;101827.88;;;-5.70;74.28
56241;BME280;42155;53.096;23.226;2022-12-18T09:16:20;101823.44;;;-5.79;73.58
56241;BME280;42155;53.096;23.226;2022-12-18T09:18:22;101830.38;;;-5.76;74.59
56241;BME280;42155;53.096;23.226;2022-12-18T09:20:23;101834.69;;;-5.77;74.09
56241;BME280;42155;53.096;23.226;2022-12-18T09:22:23;101846.81;;;-5.73;74.24
56241;BME280;42155;53.096;23.226;2022-12-18T09:24:23;101848.50;;;-5.75;74.17
56241;BME280;42155;53.096;23.226;2022-12-18T09:26:25;101848.44;;;-5.78;74.50
56241;BME280;42155;53.096;23.226;2022-12-18T09:28:26;101851.16;;;-5.69;74.62
56241;BME280;42155;53.096;23.226;2022-12-18T09:30:26;101861.72;;;-5.58;74.11
56241;BME280;42155;53.096;23.226;2022-12-18T09:32:26;101847.00;;;-5.60;73.87
56241;BME280;42155;53.096;23.226;2022-12-18T09:34:27;101861.78;;;-5.53;74.24
56241;BME280;42155;53.096;23.226;2022-12-18T09:36:27;101831.44;;;-5.64;73.93
56241;BME280;42155;53.096;23.226;2022-12-18T09:38:27;101866.38;;;-5.34;74.17
56241;BME280;42155;53.096;23.226;2022-12-18T09:40:36;101857.69;;;-5.39;73.74
56241;BME280;42155;53.096;23.226;2022-12-18T09:42:40;101864.59;;;-5.38;73.51
56241;BME280;42155;53.096;23.226;2022-12-18T09:44:43;101856.69;;;-5.49;73.37
56241;BME280;42155;53.096;23.226;2022-12-18T09:47:20;101871.28;;;-5.52;73.16
56241;BME280;42155;53.096;23.226;2022-12-18T09:49:23;101872.28;;;-5.44;73.97
56241;BME280;42155;53.096;23.226;2022-12-18T09:51:33;101867.09;;;-5.44;73.37
56241;BME280;42155;53.096;23.226;2022-12-18T09:53:37;101872.28;;;-5.44;73.14
56241;BME280;42155;53.096;23.226;2022-12-18T09:55:46;101861.59;;;-5.64;73.43
56241;BME280;42155;53.096;23.226;2022-12-18T09:57:52;101875.72;;;-5.44;73.44
56241;BME280;42155;53.096;23.226;2022-12-18T09:59:57;101882.69;;;-5.40;72.95
56241;BME280;42155;53.096;23.226;2022-12-18T10:01:58;101845.03;;;-5.77;73.23
56241;BME280;42155;53.096;23.226;2022-12-18T10:03:59;101886.56;;;-5.65;74.17
56241;BME280;42155;53.096;23.226;2022-12-18T10:06:11;101884.78;;;-5.69;73.12
56241;BME280;42155;53.096;23.226;2022-12-18T10:08:21;101888.72;;;-5.94;73.54
56241;BME280;42155;53.096;23.226;2022-12-18T10:10:35;101899.19;;;-5.84;73.84
56241;BME280;42155;53.096;23.226;2022-12-18T10:17:02;101905.97;;;-5.90;73.71
56241;BME280;42155;53.096;23.226;2022-12-18T10:24:26;101923.09;;;-5.98;72.86
56241;BME280;42155;53.096;23.226;2022-12-18T10:26:32;101897.38;;;-6.37;73.83
56241;BME280;42155;53.096;23.226;2022-12-18T10:28:35;101923.44;;;-6.25;74.53
56241;BME280;42155;53.096;23.226;2022-12-18T10:30:38;101921.25;;;-6.05;74.25
56241;BME280;42155;53.096;23.226;2022-12-18T10:32:39;101917.25;;;-5.86;73.98
56241;BME280;42155;53.096;23.226;2022-12-18T10:34:39;101923.31;;;-5.84;74.06
56241;BME280;42155;53.096;23.226;2022-12-18T10:36:40;101910.16;;;-5.99;73.94
56241;BME280;42155;53.096;23.226;2022-12-18T10:38:41;101919.16;;;-5.76;74.17
56241;BME280;42155;53.096;23.226;2022-12-18T10:43:10;101914.31;;;-5.57;72.81
56241;BME280;42155;53.096;23.226;2022-12-18T10:45:16;101913.34;;;-5.63;73.00
56241;BME280;42155;53.096;23.226;2022-12-18T10:47:18;101921.16;;;-5.59;73.42
56241;BME280;42155;53.096;23.226;2022-12-18T10:49:32;101916.19;;;-5.47;73.32
56241;BME280;42155;53.096;23.226;2022-12-18T10:51:36;101913.53;;;-5.52;72.33
56241;BME280;42155;53.096;23.226;2022-12-18T10:53:37;101912.41;;;-5.68;72.93
56241;BME280;42155;53.096;23.226;2022-12-18T10:55:39;101917.41;;;-5.77;73.63
56241;BME280;42155;53.096;23.226;2022-12-18T10:57:44;101924.97;;;-5.88;73.53
56241;BME280;42155;53.096;23.226;2022-12-18T10:59:53;101917.13;;;-5.95;73.85